createdAt,value
2023-06-13T00:00:56.366Z,24.60
2023-06-13T00:03:23.967Z,24.61
2023-06-13T00:05:55.300Z,24.58
2023-06-13T00:08:25.365Z,24.56
2023-06-13T00:10:53.454Z,24.55
2023-06-13T00:13:22.419Z,24.52
2023-06-13T00:15:52.789Z,24.51
2023-06-13T00:18:21.243Z,24.48
2023-06-13T00:20:49.170Z,24.47
2023-06-13T00:23:17.310Z,24.46
2023-06-13T00:25:45.041Z,24.44
2023-06-13T00:28:12.624Z,24.43
2023-06-13T00:30:41.633Z,24.41
2023-06-13T00:33:10.361Z,24.40
2023-06-13T00:35:38.106Z,24.39
2023-06-13T00:38:08.279Z,24.35
2023-06-13T00:40:36.089Z,24.34
2023-06-13T00:43:03.691Z,24.32
2023-06-13T00:45:33.086Z,24.31
2023-06-13T00:48:04.878Z,24.30
2023-06-13T00:50:34.770Z,24.30
2023-06-13T00:53:05.152Z,24.28
2023-06-13T00:55:33.113Z,24.25
2023-06-13T00:58:07.174Z,24.24
2023-06-13T01:00:36.558Z,24.23
2023-06-13T01:03:08.499Z,24.23
2023-06-13T01:05:36.568Z,24.21
2023-06-13T01:08:08.630Z,24.19
2023-06-13T01:10:37.333Z,24.17
2023-06-13T01:13:11.346Z,24.16
2023-06-13T01:15:45.698Z,24.15
2023-06-13T01:18:16.803Z,24.13
2023-06-13T01:20:46.586Z,24.11
2023-06-13T01:23:27.175Z,24.11
2023-06-13T01:26:04.889Z,24.10
2023-06-13T01:28:35.703Z,24.10
2023-06-13T01:31:07.164Z,24.09
2023-06-13T01:33:35.906Z,24.08
2023-06-13T01:36:04.555Z,24.06
2023-06-13T01:38:32.823Z,24.04
2023-06-13T01:41:00.547Z,24.02
2023-06-13T01:43:28.141Z,24.01
2023-06-13T01:46:05.727Z,23.98
2023-06-13T01:48:46.067Z,23.97
2023-06-13T01:51:21.883Z,23.97
2023-06-13T01:53:54.340Z,23.93
2023-06-13T01:56:23.963Z,23.93
2023-06-13T01:58:56.967Z,23.94
2023-06-13T02:01:28.086Z,23.93
2023-06-13T02:03:55.929Z,23.92
2023-06-13T02:06:23.998Z,23.88
2023-06-13T02:08:51.750Z,23.85
2023-06-13T02:11:19.336Z,23.84
2023-06-13T02:13:47.101Z,23.83
2023-06-13T02:16:15.402Z,23.83
2023-06-13T02:18:44.401Z,23.81
2023-06-13T02:21:12.018Z,23.79
2023-06-13T02:23:39.612Z,23.77
2023-06-13T02:26:07.817Z,23.77
2023-06-13T02:28:35.718Z,23.74
2023-06-13T02:31:03.725Z,23.73
2023-06-13T02:33:32.477Z,23.71
2023-06-13T02:36:01.494Z,23.68
2023-06-13T02:38:29.076Z,23.67
2023-06-13T02:40:56.693Z,23.65
2023-06-13T02:43:24.431Z,23.65
2023-06-13T02:45:53.127Z,23.61
2023-06-13T02:48:23.173Z,23.61
2023-06-13T02:50:51.499Z,23.58
2023-06-13T02:53:21.006Z,23.57
2023-06-13T02:55:49.412Z,23.57
2023-06-13T02:58:17.018Z,23.55
2023-06-13T03:00:44.882Z,23.52
2023-06-13T03:03:13.817Z,23.51
2023-06-13T03:05:43.731Z,23.49
2023-06-13T03:08:11.343Z,23.48
2023-06-13T03:10:40.371Z,23.46
2023-06-13T03:13:07.966Z,23.47
2023-06-13T03:15:35.542Z,23.44
2023-06-13T03:18:04.806Z,23.42
2023-06-13T03:20:32.677Z,23.40
2023-06-13T03:23:00.697Z,23.39
2023-06-13T03:25:28.288Z,23.39
2023-06-13T03:27:57.200Z,23.37
2023-06-13T03:30:24.785Z,23.35
2023-06-13T03:32:56.004Z,23.37
2023-06-13T03:35:23.783Z,23.36
2023-06-13T03:37:51.367Z,23.38
2023-06-13T03:40:18.999Z,23.37
2023-06-13T03:42:46.595Z,23.38
2023-06-13T03:45:16.673Z,23.39
2023-06-13T03:47:44.658Z,23.38
2023-06-13T03:50:12.728Z,23.38
2023-06-13T03:52:41.219Z,23.39
2023-06-13T03:55:09.944Z,23.39
2023-06-13T03:57:37.635Z,23.39
2023-06-13T04:00:06.856Z,23.37
2023-06-13T04:02:35.836Z,23.37
2023-06-13T04:05:04.091Z,23.36
2023-06-13T04:07:34.677Z,23.38
2023-06-13T04:10:03.503Z,23.35
2023-06-13T04:12:31.693Z,23.35
2023-06-13T04:14:59.329Z,23.33
2023-06-13T04:17:26.957Z,23.34
2023-06-13T04:19:55.884Z,23.34
2023-06-13T04:22:23.443Z,23.34
2023-06-13T04:24:51.182Z,23.38
2023-06-13T04:27:20.892Z,23.40
2023-06-13T04:29:49.045Z,23.41
2023-06-13T04:32:18.862Z,23.42
2023-06-13T04:34:53.410Z,23.45
2023-06-13T04:37:24.705Z,23.61
2023-06-13T04:39:53.106Z,24.22
2023-06-13T04:42:25.701Z,25.13
2023-06-13T04:44:54.306Z,25.87
2023-06-13T04:47:22.176Z,26.69
2023-06-13T04:49:52.506Z,27.74
2023-06-13T04:52:24.487Z,28.70
2023-06-13T04:54:55.286Z,29.49
2023-06-13T04:57:22.934Z,30.06
2023-06-13T04:59:50.550Z,30.30
2023-06-13T05:02:18.222Z,30.24
2023-06-13T05:04:45.960Z,29.90
2023-06-13T05:07:16.426Z,29.46
2023-06-13T05:09:44.242Z,29.02
2023-06-13T05:12:13.568Z,28.67
2023-06-13T05:14:41.945Z,28.40
2023-06-13T05:17:13.227Z,28.28
2023-06-13T05:19:41.523Z,28.19
2023-06-13T05:22:10.003Z,28.12
2023-06-13T05:24:37.696Z,28.10
2023-06-13T05:27:05.523Z,28.07
2023-06-13T05:29:34.439Z,28.07
2023-06-13T05:32:02.026Z,28.19
2023-06-13T05:34:29.682Z,28.53
2023-06-13T05:36:57.699Z,29.14
2023-06-13T05:39:25.256Z,29.84
2023-06-13T05:41:52.819Z,30.39
2023-06-13T05:44:20.404Z,30.78
2023-06-13T05:46:49.321Z,30.95
2023-06-13T05:49:17.082Z,30.48
2023-06-13T05:51:44.811Z,29.56
2023-06-13T05:54:12.578Z,28.74
2023-06-13T05:56:40.342Z,28.12
2023-06-13T05:59:07.926Z,27.70
2023-06-13T06:01:35.762Z,27.45
2023-06-13T06:04:05.208Z,27.24
2023-06-13T06:06:32.903Z,27.05
2023-06-13T06:09:00.554Z,26.93
2023-06-13T06:11:28.980Z,26.81
2023-06-13T06:13:57.216Z,26.75
2023-06-13T06:16:24.809Z,26.68
2023-06-13T06:18:54.807Z,26.63
2023-06-13T06:21:23.810Z,26.60
2023-06-13T06:23:51.442Z,26.57
2023-06-13T06:26:19.136Z,26.54
2023-06-13T06:28:46.683Z,26.53
2023-06-13T06:31:14.288Z,26.50
2023-06-13T06:33:41.877Z,26.48
2023-06-13T06:36:09.549Z,26.45
2023-06-13T06:38:38.482Z,26.41
2023-06-13T06:41:06.085Z,26.38
2023-06-13T06:43:33.690Z,26.36
2023-06-13T06:46:01.370Z,26.33
2023-06-13T06:48:29.060Z,26.31
2023-06-13T06:50:57.427Z,26.33
2023-06-13T06:53:24.998Z,26.31
2023-06-13T06:55:53.896Z,26.30
2023-06-13T06:58:21.478Z,26.29
2023-06-13T07:00:49.419Z,26.31
2023-06-13T07:03:17.163Z,26.29
2023-06-13T07:05:44.773Z,26.30
2023-06-13T07:08:12.355Z,26.31
2023-06-13T07:10:39.997Z,26.30
2023-06-13T07:13:09.057Z,26.29
2023-06-13T07:15:36.923Z,26.30
2023-06-13T07:18:04.716Z,26.31
2023-06-13T07:20:32.370Z,26.32
2023-06-13T07:22:59.931Z,26.32
2023-06-13T07:25:28.856Z,26.32
2023-06-13T07:27:56.465Z,26.32
2023-06-13T07:30:25.382Z,26.35
2023-06-13T07:32:53.300Z,26.36
2023-06-13T07:35:24.743Z,26.37
2023-06-13T07:37:53.781Z,26.37
2023-06-13T07:40:22.564Z,26.37
2023-06-13T07:42:50.571Z,26.38
2023-06-13T07:45:18.723Z,26.40
2023-06-13T07:47:47.710Z,26.41
2023-06-13T07:50:17.761Z,26.42
2023-06-13T07:52:45.682Z,26.44
2023-06-13T07:55:13.983Z,26.43
2023-06-13T07:57:58.086Z,26.44
2023-06-13T08:00:27.624Z,26.44
2023-06-13T08:02:57.104Z,26.43
2023-06-13T08:05:24.878Z,26.46
2023-06-13T08:07:52.773Z,26.46
2023-06-13T08:10:20.458Z,26.46
2023-06-13T08:12:48.044Z,26.45
2023-06-13T08:15:15.757Z,26.47
2023-06-13T08:17:43.872Z,26.47
2023-06-13T08:20:13.559Z,26.48
2023-06-13T08:22:42.185Z,26.49
2023-06-13T08:25:10.496Z,26.50
2023-06-13T08:27:38.545Z,26.48
2023-06-13T08:30:07.445Z,26.50
2023-06-13T08:32:35.580Z,26.50
2023-06-13T08:35:04.145Z,26.49
2023-06-13T08:37:33.077Z,26.51
2023-06-13T08:40:00.689Z,26.52
2023-06-13T08:42:29.387Z,26.52
2023-06-13T08:44:57.462Z,26.51
2023-06-13T08:47:36.308Z,26.50
2023-06-13T08:50:06.666Z,26.50
2023-06-13T08:52:39.885Z,26.50
2023-06-13T08:55:31.277Z,26.50
2023-06-13T08:58:00.312Z,26.52
2023-06-13T09:00:29.144Z,26.53
2023-06-13T09:02:57.204Z,26.51
2023-06-13T09:05:28.060Z,26.54
2023-06-13T09:08:18.067Z,26.53
2023-06-13T09:10:47.701Z,26.53
2023-06-13T09:13:17.047Z,26.51
2023-06-13T09:15:45.819Z,26.51
2023-06-13T09:18:13.674Z,26.52
2023-06-13T09:20:41.580Z,26.51
2023-06-13T09:23:15.617Z,26.50
2023-06-13T09:25:44.598Z,26.49
2023-06-13T09:28:32.067Z,26.48
2023-06-13T09:31:00.607Z,26.49
2023-06-13T09:33:28.542Z,26.50
2023-06-13T09:35:56.626Z,26.48
2023-06-13T09:38:27.943Z,26.49
2023-06-13T09:40:57.179Z,26.49
2023-06-13T09:43:25.620Z,26.48
2023-06-13T09:45:54.977Z,26.48
2023-06-13T09:48:23.934Z,26.47
2023-06-13T09:50:52.524Z,26.46
2023-06-13T09:53:21.099Z,26.45
2023-06-13T09:55:50.862Z,26.44
2023-06-13T10:00:50.042Z,26.46
2023-06-13T10:03:21.546Z,26.44
2023-06-13T10:05:50.289Z,26.42
2023-06-13T10:08:18.078Z,26.44
2023-06-13T10:10:45.684Z,26.45
2023-06-13T10:13:20.507Z,26.43
2023-06-13T10:15:53.435Z,26.44
2023-06-13T10:18:23.046Z,26.43
2023-06-13T10:20:51.994Z,26.45
2023-06-13T10:23:23.108Z,26.45
2023-06-13T10:25:53.717Z,26.44
2023-06-13T10:28:44.282Z,26.44
2023-06-13T10:31:27.231Z,26.45
2023-06-13T10:34:10.462Z,26.45
2023-06-13T10:37:01.148Z,26.45
2023-06-13T10:39:53.863Z,26.46
2023-06-13T10:42:25.863Z,26.43
2023-06-13T10:45:00.893Z,26.44
2023-06-13T10:47:30.917Z,26.45
2023-06-13T10:49:59.184Z,26.43
2023-06-13T10:52:27.001Z,26.44
2023-06-13T10:54:56.919Z,26.45
2023-06-13T10:57:25.122Z,26.45
2023-06-13T10:59:52.828Z,26.45
2023-06-13T11:02:21.738Z,26.45
2023-06-13T11:04:53.567Z,26.46
2023-06-13T11:07:29.725Z,26.45
2023-06-13T11:10:05.499Z,26.44
2023-06-13T11:12:34.031Z,26.45
2023-06-13T11:15:02.469Z,26.44
2023-06-13T11:17:32.117Z,26.43
2023-06-13T11:19:59.800Z,26.44
2023-06-13T11:22:27.459Z,26.44
2023-06-13T11:24:57.857Z,26.44
2023-06-13T11:27:26.731Z,26.45
2023-06-13T11:29:55.019Z,26.44
2023-06-13T11:32:24.429Z,26.43
2023-06-13T11:34:59.757Z,26.44
2023-06-13T11:37:31.138Z,26.45
2023-06-13T11:42:30.923Z,26.45
2023-06-13T11:44:58.850Z,26.45
2023-06-13T11:47:26.486Z,26.44
2023-06-13T11:49:58.848Z,26.45
2023-06-13T11:52:26.716Z,26.44
2023-06-13T11:54:55.556Z,26.46
2023-06-13T11:57:24.233Z,26.45
2023-06-13T11:59:58.913Z,26.46
2023-06-13T12:02:28.302Z,26.46
2023-06-13T12:04:56.186Z,26.44
2023-06-13T12:07:25.201Z,26.45
2023-06-13T12:09:54.296Z,26.44
2023-06-13T12:12:21.877Z,26.46
2023-06-13T12:14:54.889Z,26.45
2023-06-13T12:17:24.344Z,26.46
2023-06-13T12:20:08.600Z,26.46
2023-06-13T12:22:37.557Z,26.47
2023-06-13T12:25:06.112Z,26.46
2023-06-13T12:27:34.591Z,26.46
2023-06-13T12:30:10.484Z,26.47
2023-06-13T12:32:39.733Z,26.49
2023-06-13T12:35:07.436Z,26.50
2023-06-13T12:37:35.575Z,26.49
2023-06-13T12:40:11.595Z,26.50
2023-06-13T12:42:43.435Z,26.51
2023-06-13T12:45:12.031Z,26.52
2023-06-13T12:47:39.767Z,26.53
2023-06-13T12:50:12.250Z,26.54
2023-06-13T12:52:40.170Z,26.55
2023-06-13T12:55:09.318Z,26.55
2023-06-13T12:57:38.850Z,26.55
2023-06-13T13:00:11.939Z,26.55
2023-06-13T13:02:39.536Z,26.55
2023-06-13T13:05:07.407Z,26.56
2023-06-13T13:07:35.621Z,26.55
2023-06-13T13:10:03.265Z,26.56
2023-06-13T13:12:32.234Z,26.57
2023-06-13T13:15:01.697Z,26.57
2023-06-13T13:17:29.850Z,26.57
2023-06-13T13:19:57.890Z,26.57
2023-06-13T13:22:25.462Z,26.57
2023-06-13T13:24:53.057Z,26.56
2023-06-13T13:27:20.677Z,26.58
2023-06-13T13:29:49.630Z,26.58
2023-06-13T13:32:17.258Z,26.58
2023-06-13T13:34:44.826Z,26.58
2023-06-13T13:37:12.447Z,26.59
2023-06-13T13:39:40.033Z,26.58
2023-06-13T13:42:17.946Z,26.57
2023-06-13T13:44:54.457Z,26.59
2023-06-13T13:47:22.143Z,26.58
2023-06-13T13:49:49.832Z,26.58
2023-06-13T13:52:17.475Z,26.58
2023-06-13T13:54:45.063Z,26.58
2023-06-13T13:57:13.923Z,26.59
2023-06-13T13:59:41.538Z,26.57
2023-06-13T14:02:10.540Z,26.58
2023-06-13T14:04:38.165Z,26.56
2023-06-13T14:07:05.933Z,26.56
2023-06-13T14:09:33.581Z,26.57
2023-06-13T14:12:01.354Z,26.57
2023-06-13T14:14:29.087Z,26.58
2023-06-13T14:16:56.833Z,26.59
2023-06-13T14:19:25.868Z,26.59
2023-06-13T14:21:53.496Z,26.61
2023-06-13T14:24:21.273Z,26.61
2023-06-13T14:26:50.694Z,26.63
2023-06-13T14:29:18.411Z,26.62
2023-06-13T14:31:46.030Z,26.60
2023-06-13T14:34:15.602Z,26.58
2023-06-13T14:36:44.873Z,26.58
2023-06-13T14:39:12.706Z,26.59
2023-06-13T14:41:40.308Z,26.59
2023-06-13T14:44:07.956Z,26.60
2023-06-13T14:46:35.980Z,26.59
2023-06-13T14:49:03.550Z,26.58
2023-06-13T14:51:31.198Z,26.60
2023-06-13T14:54:00.092Z,26.60
2023-06-13T14:56:27.658Z,26.60
2023-06-13T14:58:55.259Z,26.58
2023-06-13T15:01:22.863Z,26.57
2023-06-13T15:03:51.310Z,26.57
2023-06-13T15:06:19.617Z,26.56
2023-06-13T15:08:47.249Z,26.54
2023-06-13T15:11:16.320Z,26.55
2023-06-13T15:13:43.938Z,26.55
2023-06-13T15:16:11.919Z,26.54
2023-06-13T15:18:39.593Z,26.54
2023-06-13T15:21:07.388Z,26.55
2023-06-13T15:23:35.478Z,26.55
2023-06-13T15:26:03.276Z,26.50
2023-06-13T15:28:32.620Z,26.46
2023-06-13T15:31:00.581Z,26.38
2023-06-13T15:33:33.284Z,26.35
2023-06-13T15:36:03.839Z,26.33
2023-06-13T15:38:31.993Z,26.35
2023-06-13T15:40:59.693Z,26.32
2023-06-13T15:43:27.321Z,26.32
2023-06-13T15:45:56.459Z,26.32
2023-06-13T15:48:24.382Z,26.30
2023-06-13T15:50:52.116Z,26.29
2023-06-13T15:53:20.712Z,26.29
2023-06-13T15:55:48.472Z,26.25
2023-06-13T15:58:16.131Z,26.25
2023-06-13T16:00:43.867Z,26.24
2023-06-13T16:03:14.056Z,26.22
2023-06-13T16:05:41.936Z,26.22
2023-06-13T16:08:09.561Z,26.23
2023-06-13T16:10:37.210Z,26.19
2023-06-13T16:13:04.839Z,26.19
2023-06-13T16:15:34.191Z,26.20
2023-06-13T16:18:01.870Z,26.20
2023-06-13T16:20:30.821Z,26.20
2023-06-13T16:23:00.181Z,26.18
2023-06-13T16:25:27.814Z,26.18
2023-06-13T16:27:55.470Z,26.14
2023-06-13T16:30:23.256Z,26.13
2023-06-13T16:32:51.356Z,26.11
2023-06-13T16:35:19.192Z,26.13
2023-06-13T16:37:48.339Z,26.10
2023-06-13T16:40:15.973Z,26.09
2023-06-13T16:42:44.014Z,26.06
2023-06-13T16:45:11.739Z,26.07
2023-06-13T16:47:39.810Z,26.05
2023-06-13T16:50:09.284Z,26.03
2023-06-13T16:52:37.006Z,26.03
2023-06-13T16:55:08.106Z,26.02
2023-06-13T16:57:35.811Z,26.01
2023-06-13T17:00:03.860Z,25.98
2023-06-13T17:02:31.587Z,25.97
2023-06-13T17:04:59.316Z,25.94
2023-06-13T17:07:26.950Z,25.92
2023-06-13T17:09:54.649Z,25.91
2023-06-13T17:12:23.638Z,25.92
2023-06-13T17:14:52.296Z,25.92
2023-06-13T17:17:20.056Z,25.92
2023-06-13T17:19:47.873Z,25.90
2023-06-13T17:22:16.270Z,25.83
2023-06-13T17:24:43.802Z,25.81
2023-06-13T17:27:11.511Z,25.81
2023-06-13T17:29:40.394Z,25.80
2023-06-13T17:32:08.970Z,25.85
2023-06-13T17:34:37.106Z,25.83
2023-06-13T17:37:06.046Z,25.82
2023-06-13T17:39:33.724Z,25.86
2023-06-13T17:42:04.591Z,25.85
2023-06-13T17:44:32.174Z,25.87
2023-06-13T17:47:01.141Z,25.87
2023-06-13T17:49:28.799Z,25.87
2023-06-13T17:51:56.558Z,25.91
2023-06-13T17:54:24.179Z,25.90
2023-06-13T17:56:52.495Z,25.90
2023-06-13T17:59:21.335Z,25.91
2023-06-13T18:01:49.585Z,25.91
2023-06-13T18:04:18.750Z,25.91
2023-06-13T18:06:46.965Z,25.91
2023-06-13T18:09:14.619Z,25.91
2023-06-13T18:11:42.284Z,25.93
2023-06-13T18:14:09.936Z,25.93
2023-06-13T18:16:37.834Z,25.95
2023-06-13T18:19:08.632Z,25.93
2023-06-13T18:21:37.948Z,25.94
2023-06-13T18:24:06.232Z,25.93
2023-06-13T18:26:33.961Z,25.95
2023-06-13T18:29:01.538Z,25.95
2023-06-13T18:31:29.181Z,25.93
2023-06-13T18:33:56.827Z,25.91
2023-06-13T18:36:25.215Z,25.86
2023-06-13T18:38:55.109Z,25.82
2023-06-13T18:41:22.823Z,25.81
2023-06-13T18:43:50.794Z,25.77
2023-06-13T18:46:18.492Z,25.74
2023-06-13T18:48:46.418Z,25.71
2023-06-13T18:51:13.976Z,25.71
2023-06-13T18:53:41.753Z,25.71
2023-06-13T18:56:11.545Z,25.68
2023-06-13T18:58:39.131Z,25.65
2023-06-13T19:01:08.388Z,25.64
2023-06-13T19:03:36.266Z,25.61
2023-06-13T19:06:04.372Z,25.59
2023-06-13T19:08:33.312Z,25.57
2023-06-13T19:11:01.061Z,25.57
2023-06-13T19:13:29.969Z,25.56
2023-06-13T19:16:00.033Z,25.55
2023-06-13T19:18:28.110Z,25.54
2023-06-13T19:20:55.825Z,25.52
2023-06-13T19:23:23.502Z,25.50
2023-06-13T19:25:51.913Z,25.47
2023-06-13T19:28:20.472Z,25.46
2023-06-13T19:30:51.389Z,25.42
2023-06-13T19:33:19.286Z,25.41
2023-06-13T19:35:46.979Z,25.38
2023-06-13T19:38:15.987Z,25.37
2023-06-13T19:40:43.617Z,25.34
2023-06-13T19:43:11.415Z,25.31
2023-06-13T19:45:39.036Z,25.27
2023-06-13T19:48:11.790Z,25.25
2023-06-13T19:50:40.371Z,25.22
2023-06-13T19:53:09.215Z,25.21
2023-06-13T19:55:37.735Z,25.16
2023-06-13T19:58:06.354Z,25.19
2023-06-13T20:00:35.002Z,25.16
2023-06-13T20:03:02.754Z,25.13
2023-06-13T20:05:32.140Z,25.07
2023-06-13T20:07:59.733Z,25.06
2023-06-13T20:10:27.366Z,25.04
2023-06-13T20:12:56.012Z,25.02
2023-06-13T20:15:23.960Z,25.01
2023-06-13T20:17:51.691Z,24.98
2023-06-13T20:20:23.109Z,25.00
2023-06-13T20:22:52.205Z,24.99
2023-06-13T20:25:20.018Z,24.94
2023-06-13T20:27:48.691Z,24.94
2023-06-13T20:30:16.578Z,24.92
2023-06-13T20:32:44.188Z,24.90
2023-06-13T20:35:12.465Z,24.88
2023-06-13T20:37:40.262Z,24.85
2023-06-13T20:40:12.579Z,24.83
2023-06-13T20:42:41.681Z,24.80
2023-06-13T20:45:10.344Z,24.82
2023-06-13T20:47:38.891Z,24.77
2023-06-13T20:50:09.401Z,24.80
2023-06-13T20:52:38.674Z,24.74
2023-06-13T20:55:08.617Z,24.79
2023-06-13T20:57:38.381Z,24.78
2023-06-13T21:00:15.730Z,24.76
2023-06-13T21:02:45.916Z,24.77
2023-06-13T21:05:13.605Z,24.75
2023-06-13T21:07:42.520Z,24.77
2023-06-13T21:10:11.094Z,24.75
2023-06-13T21:12:41.972Z,24.74
2023-06-13T21:15:10.631Z,24.74
2023-06-13T21:17:38.265Z,24.74
2023-06-13T21:20:08.170Z,24.71
2023-06-13T21:22:35.755Z,24.69
2023-06-13T21:25:03.370Z,24.66
2023-06-13T21:27:30.941Z,24.67
2023-06-13T21:30:00.579Z,24.66
2023-06-13T21:32:28.231Z,24.66
2023-06-13T21:34:55.845Z,24.65
2023-06-13T21:37:23.424Z,24.63
2023-06-13T21:39:52.946Z,24.61
2023-06-13T21:42:20.939Z,24.59
2023-06-13T21:44:48.761Z,24.56
2023-06-13T21:47:17.736Z,24.54
2023-06-13T21:49:45.946Z,24.54
2023-06-13T21:52:13.544Z,24.56
2023-06-13T21:54:41.895Z,24.53
2023-06-13T21:57:09.598Z,24.52
2023-06-13T21:59:37.205Z,24.50
2023-06-13T22:02:06.454Z,24.51
2023-06-13T22:04:35.707Z,24.49
2023-06-13T22:07:05.707Z,24.48
2023-06-13T22:09:33.627Z,24.46
2023-06-13T22:12:03.612Z,24.44
2023-06-13T22:14:31.337Z,24.43
2023-06-13T22:16:58.993Z,24.40
2023-06-13T22:19:26.633Z,24.39
2023-06-13T22:21:58.463Z,24.38
2023-06-13T22:24:26.249Z,24.37
2023-06-13T22:26:54.193Z,24.34
2023-06-13T22:29:22.039Z,24.34
2023-06-13T22:31:49.992Z,24.33
2023-06-13T22:34:17.899Z,24.32
2023-06-13T22:36:45.865Z,24.27
2023-06-13T22:39:15.290Z,24.26
2023-06-13T22:41:42.869Z,24.25
2023-06-13T22:44:10.448Z,24.25
2023-06-13T22:46:38.107Z,24.23
2023-06-13T22:49:06.513Z,24.22
2023-06-13T22:51:37.424Z,24.21
2023-06-13T22:54:05.191Z,24.20
2023-06-13T22:56:34.271Z,24.17
2023-06-13T22:59:01.855Z,24.15
2023-06-13T23:01:33.545Z,24.15
2023-06-13T23:04:01.252Z,24.12
2023-06-13T23:06:29.202Z,24.10
2023-06-13T23:08:57.009Z,24.07
2023-06-13T23:11:24.648Z,24.05
2023-06-13T23:13:53.590Z,24.04
2023-06-13T23:16:21.195Z,24.03
2023-06-13T23:18:48.851Z,24.02
2023-06-13T23:21:16.833Z,24.00
2023-06-13T23:23:44.540Z,23.97
2023-06-13T23:26:12.158Z,23.97
2023-06-13T23:28:39.778Z,23.94
2023-06-13T23:31:14.310Z,23.94
2023-06-13T23:33:42.331Z,23.92
2023-06-13T23:36:10.315Z,23.90
2023-06-13T23:38:38.475Z,23.86
2023-06-13T23:41:06.238Z,23.85
2023-06-13T23:43:33.825Z,23.84
2023-06-13T23:46:02.161Z,23.79
2023-06-13T23:48:31.343Z,23.77
2023-06-13T23:50:58.978Z,23.75
2023-06-13T23:53:26.648Z,23.71
2023-06-13T23:55:54.273Z,23.69
2023-06-13T23:58:21.959Z,23.68
